sensor_id;sensor_type;location;lat;lon;timestamp;temperature;humidity
3940;DHT22;1984;48.312;9.244;2022-11-14T00:00:41;3.40;99.90
3940;DHT22;1984;48.312;9.244;2022-11-14T00:03:08;3.30;99.90
3940;DHT22;1984;48.312;9.244;2022-11-14T00:05:41;3.30;99.90
3940;DHT22;1984;48.312;9.244;2022-11-14T00:08:17;3.30;99.90
3940;DHT22;1984;48.312;9.244;2022-11-14T00:10:48;3.30;99.90
3940;DHT22;1984;48.312;9.244;2022-11-14T00:13:14;3.30;99.90
3940;DHT22;1984;48.312;9.244;2022-11-14T00:15:40;3.30;99.90
3940;DHT22;1984;48.312;9.244;2022-11-14T00:18:06;3.30;99.90
3940;DHT22;1984;48.312;9.244;2022-11-14T00:20:32;3.30;99.90
3940;DHT22;1984;48.312;9.244;2022-11-14T00:22:57;3.30;99.90
3940;DHT22;1984;48.312;9.244;2022-11-14T00:25:23;3.30;99.90
3940;DHT22;1984;48.312;9.244;2022-11-14T00:27:48;3.30;99.90
3940;DHT22;1984;48.312;9.244;2022-11-14T00:30:14;3.30;99.90
3940;DHT22;1984;48.312;9.244;2022-11-14T00:32:39;3.30;99.90
3940;DHT22;1984;48.312;9.244;2022-11-14T00:35:06;3.40;99.90
3940;DHT22;1984;48.312;9.244;2022-11-14T00:37:33;3.40;99.90
3940;DHT22;1984;48.312;9.244;2022-11-14T00:39:59;3.40;99.90
3940;DHT22;1984;48.312;9.244;2022-11-14T00:42:24;3.40;99.90
3940;DHT22;1984;48.312;9.244;2022-11-14T00:44:50;3.40;99.90
3940;DHT22;1984;48.312;9.244;2022-11-14T00:47:15;3.40;99.90
3940;DHT22;1984;48.312;9.244;2022-11-14T00:49:41;3.40;99.90
3940;DHT22;1984;48.312;9.244;2022-11-14T00:52:07;3.50;99.90
3940;DHT22;1984;48.312;9.244;2022-11-14T00:54:32;3.40;99.90
3940;DHT22;1984;48.312;9.244;2022-11-14T00:56:58;3.50;99.90
3940;DHT22;1984;48.312;9.244;2022-11-14T00:59:23;3.50;99.90
3940;DHT22;1984;48.312;9.244;2022-11-14T01:01:49;3.50;99.90
3940;DHT22;1984;48.312;9.244;2022-11-14T01:04:14;3.40;99.90
3940;DHT22;1984;48.312;9.244;2022-11-14T01:06:40;3.40;99.90
3940;DHT22;1984;48.312;9.244;2022-11-14T01:09:06;3.40;99.90
3940;DHT22;1984;48.312;9.244;2022-11-14T01:11:31;3.40;99.90
3940;DHT22;1984;48.312;9.244;2022-11-14T01:13:57;3.40;99.90
3940;DHT22;1984;48.312;9.244;2022-11-14T01:16:22;3.40;99.90
3940;DHT22;1984;48.312;9.244;2022-11-14T01:18:48;3.30;99.90
3940;DHT22;1984;48.312;9.244;2022-11-14T01:21:14;3.40;99.90
3940;DHT22;1984;48.312;9.244;2022-11-14T01:23:39;3.40;99.90
3940;DHT22;1984;48.312;9.244;2022-11-14T01:26:12;3.30;99.90
3940;DHT22;1984;48.312;9.244;2022-11-14T01:28:39;3.30;99.90
3940;DHT22;1984;48.312;9.244;2022-11-14T01:31:11;3.30;99.90
3940;DHT22;1984;48.312;9.244;2022-11-14T01:33:37;3.30;99.90
3940;DHT22;1984;48.312;9.244;2022-11-14T01:36:04;3.30;99.90
3940;DHT22;1984;48.312;9.244;2022-11-14T01:38:30;3.30;99.90
3940;DHT22;1984;48.312;9.244;2022-11-14T01:40:56;3.30;99.90
3940;DHT22;1984;48.312;9.244;2022-11-14T01:43:32;3.40;99.90
3940;DHT22;1984;48.312;9.244;2022-11-14T01:46:04;3.40;99.90
3940;DHT22;1984;48.312;9.244;2022-11-14T01:48:38;3.40;99.90
3940;DHT22;1984;48.312;9.244;2022-11-14T01:53:52;3.40;99.90
3940;DHT22;1984;48.312;9.244;2022-11-14T01:56:23;3.40;99.90
3940;DHT22;1984;48.312;9.244;2022-11-14T01:59:02;3.40;99.90
3940;DHT22;1984;48.312;9.244;2022-11-14T02:01:34;3.30;99.90
3940;DHT22;1984;48.312;9.244;2022-11-14T02:04:01;3.20;99.90
3940;DHT22;1984;48.312;9.244;2022-11-14T02:06:30;3.20;99.90
3940;DHT22;1984;48.312;9.244;2022-11-14T02:08:57;3.10;99.90
3940;DHT22;1984;48.312;9.244;2022-11-14T02:11:24;3.10;99.90
3940;DHT22;1984;48.312;9.244;2022-11-14T02:13:53;3.20;99.90
3940;DHT22;1984;48.312;9.244;2022-11-14T02:16:18;3.10;99.90
3940;DHT22;1984;48.312;9.244;2022-11-14T02:18:44;3.20;99.90
3940;DHT22;1984;48.312;9.244;2022-11-14T02:21:10;3.30;99.90
3940;DHT22;1984;48.312;9.244;2022-11-14T02:23:35;3.30;99.90
3940;DHT22;1984;48.312;9.244;2022-11-14T02:26:01;3.40;99.90
3940;DHT22;1984;48.312;9.244;2022-11-14T02:28:26;3.40;99.90
3940;DHT22;1984;48.312;9.244;2022-11-14T02:30:52;3.50;99.90
3940;DHT22;1984;48.312;9.244;2022-11-14T02:33:18;3.50;99.90
3940;DHT22;1984;48.312;9.244;2022-11-14T02:35:43;3.60;99.90
3940;DHT22;1984;48.312;9.244;2022-11-14T02:38:09;3.60;99.90
3940;DHT22;1984;48.312;9.244;2022-11-14T02:40:35;3.60;99.90
3940;DHT22;1984;48.312;9.244;2022-11-14T02:43:00;3.60;99.90
3940;DHT22;1984;48.312;9.244;2022-11-14T02:45:26;3.70;99.90
3940;DHT22;1984;48.312;9.244;2022-11-14T02:47:51;3.70;99.90
3940;DHT22;1984;48.312;9.244;2022-11-14T02:50:17;3.70;99.90
3940;DHT22;1984;48.312;9.244;2022-11-14T02:52:43;3.70;99.90
3940;DHT22;1984;48.312;9.244;2022-11-14T02:55:09;3.80;99.90
3940;DHT22;1984;48.312;9.244;2022-11-14T02:57:35;3.80;99.90
3940;DHT22;1984;48.312;9.244;2022-11-14T03:00:00;3.80;99.90
3940;DHT22;1984;48.312;9.244;2022-11-14T03:02:26;3.80;99.90
3940;DHT22;1984;48.312;9.244;2022-11-14T03:04:52;3.80;99.90
3940;DHT22;1984;48.312;9.244;2022-11-14T03:07:17;3.90;99.90
3940;DHT22;1984;48.312;9.244;2022-11-14T03:09:43;3.90;99.90
3940;DHT22;1984;48.312;9.244;2022-11-14T03:12:08;3.90;99.90
3940;DHT22;1984;48.312;9.244;2022-11-14T03:14:34;3.80;99.90
3940;DHT22;1984;48.312;9.244;2022-11-14T03:17:00;3.80;99.90
3940;DHT22;1984;48.312;9.244;2022-11-14T03:19:25;3.70;99.90
3940;DHT22;1984;48.312;9.244;2022-11-14T03:21:51;3.60;99.90
3940;DHT22;1984;48.312;9.244;2022-11-14T03:24:17;3.60;99.90
3940;DHT22;1984;48.312;9.244;2022-11-14T03:26:42;3.70;99.90
3940;DHT22;1984;48.312;9.244;2022-11-14T03:29:08;3.80;99.90
3940;DHT22;1984;48.312;9.244;2022-11-14T03:31:33;3.80;99.90
3940;DHT22;1984;48.312;9.244;2022-11-14T03:33:59;3.80;99.90
3940;DHT22;1984;48.312;9.244;2022-11-14T03:36:25;3.80;99.90
3940;DHT22;1984;48.312;9.244;2022-11-14T03:38:50;3.90;99.90
3940;DHT22;1984;48.312;9.244;2022-11-14T03:41:16;3.90;99.90
3940;DHT22;1984;48.312;9.244;2022-11-14T03:43:41;3.90;99.90
3940;DHT22;1984;48.312;9.244;2022-11-14T03:46:07;3.90;99.90
3940;DHT22;1984;48.312;9.244;2022-11-14T03:48:32;3.90;99.90
3940;DHT22;1984;48.312;9.244;2022-11-14T03:50:58;4.00;99.90
3940;DHT22;1984;48.312;9.244;2022-11-14T03:53:24;4.00;99.90
3940;DHT22;1984;48.312;9.244;2022-11-14T03:55:51;4.10;99.90
3940;DHT22;1984;48.312;9.244;2022-11-14T03:58:16;4.10;99.90
3940;DHT22;1984;48.312;9.244;2022-11-14T04:00:42;4.20;99.90
3940;DHT22;1984;48.312;9.244;2022-11-14T04:03:07;4.20;99.90
3940;DHT22;1984;48.312;9.244;2022-11-14T04:05:33;4.20;99.90
3940;DHT22;1984;48.312;9.244;2022-11-14T04:07:58;4.20;99.90
3940;DHT22;1984;48.312;9.244;2022-11-14T04:10:24;4.20;99.90
3940;DHT22;1984;48.312;9.244;2022-11-14T04:12:51;4.20;99.90
3940;DHT22;1984;48.312;9.244;2022-11-14T04:15:17;4.20;99.90
3940;DHT22;1984;48.312;9.244;2022-11-14T04:17:44;4.20;99.90
3940;DHT22;1984;48.312;9.244;2022-11-14T04:20:10;4.30;99.90
3940;DHT22;1984;48.312;9.244;2022-11-14T04:22:36;4.20;99.90
3940;DHT22;1984;48.312;9.244;2022-11-14T04:25:02;4.30;99.90
3940;DHT22;1984;48.312;9.244;2022-11-14T04:27:28;4.30;99.90
3940;DHT22;1984;48.312;9.244;2022-11-14T04:29:53;4.30;99.90
3940;DHT22;1984;48.312;9.244;2022-11-14T04:32:19;4.20;99.90
3940;DHT22;1984;48.312;9.244;2022-11-14T04:34:44;4.20;99.90
3940;DHT22;1984;48.312;9.244;2022-11-14T04:37:10;4.30;99.90
3940;DHT22;1984;48.312;9.244;2022-11-14T04:39:35;4.20;99.90
3940;DHT22;1984;48.312;9.244;2022-11-14T04:42:01;4.30;99.90
3940;DHT22;1984;48.312;9.244;2022-11-14T04:44:26;4.20;99.90
3940;DHT22;1984;48.312;9.244;2022-11-14T04:46:52;4.30;99.90
3940;DHT22;1984;48.312;9.244;2022-11-14T04:49:17;4.20;99.90
3940;DHT22;1984;48.312;9.244;2022-11-14T04:51:43;4.20;99.90
3940;DHT22;1984;48.312;9.244;2022-11-14T04:54:08;4.20;99.90
3940;DHT22;1984;48.312;9.244;2022-11-14T04:56:34;4.20;99.90
3940;DHT22;1984;48.312;9.244;2022-11-14T04:58:59;4.20;99.90
3940;DHT22;1984;48.312;9.244;2022-11-14T05:01:25;4.30;99.90
3940;DHT22;1984;48.312;9.244;2022-11-14T05:03:50;4.30;99.90
3940;DHT22;1984;48.312;9.244;2022-11-14T05:06:16;4.30;99.90
3940;DHT22;1984;48.312;9.244;2022-11-14T05:08:41;4.30;99.90
3940;DHT22;1984;48.312;9.244;2022-11-14T05:11:13;4.40;99.90
3940;DHT22;1984;48.312;9.244;2022-11-14T05:13:38;4.40;99.90
3940;DHT22;1984;48.312;9.244;2022-11-14T05:16:04;4.40;99.90
3940;DHT22;1984;48.312;9.244;2022-11-14T05:18:29;4.40;99.90
3940;DHT22;1984;48.312;9.244;2022-11-14T05:20:57;4.40;99.90
3940;DHT22;1984;48.312;9.244;2022-11-14T05:23:23;4.50;99.90
3940;DHT22;1984;48.312;9.244;2022-11-14T05:26:07;4.50;99.90
3940;DHT22;1984;48.312;9.244;2022-11-14T05:28:33;4.50;99.90
3940;DHT22;1984;48.312;9.244;2022-11-14T05:31:07;4.50;99.90
3940;DHT22;1984;48.312;9.244;2022-11-14T05:33:33;4.50;99.90
3940;DHT22;1984;48.312;9.244;2022-11-14T05:36:10;4.50;99.90
3940;DHT22;1984;48.312;9.244;2022-11-14T05:38:36;4.60;99.90
3940;DHT22;1984;48.312;9.244;2022-11-14T05:41:06;4.60;99.90
3940;DHT22;1984;48.312;9.244;2022-11-14T05:43:32;4.60;99.90
3940;DHT22;1984;48.312;9.244;2022-11-14T05:46:01;4.60;99.90
3940;DHT22;1984;48.312;9.244;2022-11-14T05:48:28;4.60;99.90
3940;DHT22;1984;48.312;9.244;2022-11-14T05:50:55;4.60;99.90
3940;DHT22;1984;48.312;9.244;2022-11-14T05:53:21;4.60;99.90
3940;DHT22;1984;48.312;9.244;2022-11-14T05:55:46;4.60;99.90
3940;DHT22;1984;48.312;9.244;2022-11-14T05:58:12;4.70;99.90
3940;DHT22;1984;48.312;9.244;2022-11-14T06:00:37;4.70;99.90
3940;DHT22;1984;48.312;9.244;2022-11-14T06:03:03;4.70;99.90
3940;DHT22;1984;48.312;9.244;2022-11-14T06:05:28;4.70;99.90
3940;DHT22;1984;48.312;9.244;2022-11-14T06:07:56;4.80;99.90
3940;DHT22;1984;48.312;9.244;2022-11-14T06:10:22;4.80;99.90
3940;DHT22;1984;48.312;9.244;2022-11-14T06:12:47;4.80;99.90
3940;DHT22;1984;48.312;9.244;2022-11-14T06:15:13;4.80;99.90
3940;DHT22;1984;48.312;9.244;2022-11-14T06:17:39;4.80;99.90
3940;DHT22;1984;48.312;9.244;2022-11-14T06:20:05;4.90;99.90
3940;DHT22;1984;48.312;9.244;2022-11-14T06:22:30;4.90;99.90
3940;DHT22;1984;48.312;9.244;2022-11-14T06:24:57;4.90;99.90
3940;DHT22;1984;48.312;9.244;2022-11-14T06:27:23;4.90;99.90
3940;DHT22;1984;48.312;9.244;2022-11-14T06:29:48;5.00;99.90
3940;DHT22;1984;48.312;9.244;2022-11-14T06:32:14;5.00;99.90
3940;DHT22;1984;48.312;9.244;2022-11-14T06:34:39;5.00;99.90
3940;DHT22;1984;48.312;9.244;2022-11-14T06:37:05;5.10;99.90
3940;DHT22;1984;48.312;9.244;2022-11-14T06:39:30;5.10;99.90
3940;DHT22;1984;48.312;9.244;2022-11-14T06:41:56;5.10;99.90
3940;DHT22;1984;48.312;9.244;2022-11-14T06:44:21;5.10;99.90
3940;DHT22;1984;48.312;9.244;2022-11-14T06:46:47;5.20;99.90
3940;DHT22;1984;48.312;9.244;2022-11-14T06:49:12;5.20;99.90
3940;DHT22;1984;48.312;9.244;2022-11-14T06:51:38;5.30;99.90
3940;DHT22;1984;48.312;9.244;2022-11-14T06:54:03;5.40;99.90
3940;DHT22;1984;48.312;9.244;2022-11-14T06:56:29;5.40;99.90
3940;DHT22;1984;48.312;9.244;2022-11-14T06:58:54;5.50;99.90
3940;DHT22;1984;48.312;9.244;2022-11-14T07:01:23;5.50;99.90
3940;DHT22;1984;48.312;9.244;2022-11-14T07:03:50;5.50;99.90
3940;DHT22;1984;48.312;9.244;2022-11-14T07:06:19;5.60;99.90
3940;DHT22;1984;48.312;9.244;2022-11-14T07:08:45;5.70;99.90
3940;DHT22;1984;48.312;9.244;2022-11-14T07:11:13;5.70;99.90
3940;DHT22;1984;48.312;9.244;2022-11-14T07:13:57;5.70;99.90
3940;DHT22;1984;48.312;9.244;2022-11-14T07:16:29;5.70;99.90
3940;DHT22;1984;48.312;9.244;2022-11-14T07:18:58;5.80;99.90
3940;DHT22;1984;48.312;9.244;2022-11-14T07:21:26;5.80;99.90
3940;DHT22;1984;48.312;9.244;2022-11-14T07:23:51;5.90;99.90
3940;DHT22;1984;48.312;9.244;2022-11-14T07:26:17;5.90;99.90
3940;DHT22;1984;48.312;9.244;2022-11-14T07:28:44;5.90;99.90
3940;DHT22;1984;48.312;9.244;2022-11-14T07:31:12;5.90;99.90
3940;DHT22;1984;48.312;9.244;2022-11-14T07:33:39;6.00;99.90
3940;DHT22;1984;48.312;9.244;2022-11-14T07:36:05;6.00;99.90
3940;DHT22;1984;48.312;9.244;2022-11-14T07:38:32;6.00;99.90
3940;DHT22;1984;48.312;9.244;2022-11-14T07:40:59;6.00;99.90
3940;DHT22;1984;48.312;9.244;2022-11-14T07:43:26;6.10;99.90
3940;DHT22;1984;48.312;9.244;2022-11-14T07:45:52;6.10;99.90
3940;DHT22;1984;48.312;9.244;2022-11-14T07:48:17;6.20;99.90
3940;DHT22;1984;48.312;9.244;2022-11-14T07:50:43;6.20;99.90
3940;DHT22;1984;48.312;9.244;2022-11-14T07:53:09;6.30;99.90
3940;DHT22;1984;48.312;9.244;2022-11-14T07:55:35;6.30;99.90
3940;DHT22;1984;48.312;9.244;2022-11-14T07:58:01;6.30;99.90
3940;DHT22;1984;48.312;9.244;2022-11-14T08:00:27;6.40;99.90
3940;DHT22;1984;48.312;9.244;2022-11-14T08:02:53;6.40;99.90
3940;DHT22;1984;48.312;9.244;2022-11-14T08:05:18;6.50;99.90
3940;DHT22;1984;48.312;9.244;2022-11-14T08:07:44;6.50;99.90
3940;DHT22;1984;48.312;9.244;2022-11-14T08:10:10;6.60;99.90
3940;DHT22;1984;48.312;9.244;2022-11-14T08:12:38;6.60;99.90
3940;DHT22;1984;48.312;9.244;2022-11-14T08:15:07;6.70;99.90
3940;DHT22;1984;48.312;9.244;2022-11-14T08:17:33;6.70;99.90
3940;DHT22;1984;48.312;9.244;2022-11-14T08:19:59;6.70;99.90
3940;DHT22;1984;48.312;9.244;2022-11-14T08:22:24;6.80;99.90
3940;DHT22;1984;48.312;9.244;2022-11-14T08:24:50;6.80;99.90
3940;DHT22;1984;48.312;9.244;2022-11-14T08:27:15;6.80;99.90
3940;DHT22;1984;48.312;9.244;2022-11-14T08:29:41;6.80;99.90
3940;DHT22;1984;48.312;9.244;2022-11-14T08:32:06;6.90;99.90
3940;DHT22;1984;48.312;9.244;2022-11-14T08:34:32;6.80;99.90
3940;DHT22;1984;48.312;9.244;2022-11-14T08:36:57;6.90;99.90
3940;DHT22;1984;48.312;9.244;2022-11-14T08:39:23;6.90;99.90
3940;DHT22;1984;48.312;9.244;2022-11-14T08:41:49;6.90;99.90
3940;DHT22;1984;48.312;9.244;2022-11-14T08:44:14;6.90;99.90
3940;DHT22;1984;48.312;9.244;2022-11-14T08:46:40;7.00;99.90
3940;DHT22;1984;48.312;9.244;2022-11-14T08:49:05;7.00;99.90
3940;DHT22;1984;48.312;9.244;2022-11-14T08:51:31;7.10;99.90
3940;DHT22;1984;48.312;9.244;2022-11-14T08:53:56;7.10;99.90
3940;DHT22;1984;48.312;9.244;2022-11-14T08:56:22;7.10;99.90
3940;DHT22;1984;48.312;9.244;2022-11-14T08:58:47;7.20;99.90
3940;DHT22;1984;48.312;9.244;2022-11-14T09:01:13;7.20;99.90
3940;DHT22;1984;48.312;9.244;2022-11-14T09:03:38;7.30;99.90
3940;DHT22;1984;48.312;9.244;2022-11-14T09:06:04;7.30;99.90
3940;DHT22;1984;48.312;9.244;2022-11-14T09:08:30;7.30;99.90
3940;DHT22;1984;48.312;9.244;2022-11-14T09:10:59;7.30;99.90
3940;DHT22;1984;48.312;9.244;2022-11-14T09:13:25;7.40;99.90
3940;DHT22;1984;48.312;9.244;2022-11-14T09:15:51;7.40;99.90
3940;DHT22;1984;48.312;9.244;2022-11-14T09:18:17;7.30;99.90
3940;DHT22;1984;48.312;9.244;2022-11-14T09:20:42;7.30;99.90
3940;DHT22;1984;48.312;9.244;2022-11-14T09:23:08;7.30;99.90
3940;DHT22;1984;48.312;9.244;2022-11-14T09:25:34;7.30;99.90
3940;DHT22;1984;48.312;9.244;2022-11-14T09:28:06;7.40;99.90
3940;DHT22;1984;48.312;9.244;2022-11-14T09:30:34;7.40;99.90
3940;DHT22;1984;48.312;9.244;2022-11-14T09:33:02;7.40;99.90
3940;DHT22;1984;48.312;9.244;2022-11-14T09:35:28;7.40;99.90
3940;DHT22;1984;48.312;9.244;2022-11-14T09:38:06;7.50;99.90
3940;DHT22;1984;48.312;9.244;2022-11-14T09:45:52;7.60;99.90
3940;DHT22;1984;48.312;9.244;2022-11-14T09:48:22;7.60;99.90
3940;DHT22;1984;48.312;9.244;2022-11-14T09:51:08;7.70;99.90
3940;DHT22;1984;48.312;9.244;2022-11-14T09:54:39;7.70;99.90
3940;DHT22;1984;48.312;9.244;2022-11-14T09:56:40;7.70;99.90
3940;DHT22;1984;48.312;9.244;2022-11-14T09:59:13;7.70;99.90
3940;DHT22;1984;48.312;9.244;2022-11-14T10:07:09;7.70;99.90
3940;DHT22;1984;48.312;9.244;2022-11-14T10:10:03;7.70;99.90
3940;DHT22;1984;48.312;9.244;2022-11-14T10:12:59;7.60;99.90
3940;DHT22;1984;48.312;9.244;2022-11-14T10:15:36;7.60;99.90
3940;DHT22;1984;48.312;9.244;2022-11-14T10:21:34;7.70;99.90
3940;DHT22;1984;48.312;9.244;2022-11-14T10:24:30;7.80;99.90
3940;DHT22;1984;48.312;9.244;2022-11-14T10:27:06;7.80;99.90
3940;DHT22;1984;48.312;9.244;2022-11-14T10:32:31;7.90;99.90
3940;DHT22;1984;48.312;9.244;2022-11-14T10:35:03;8.10;99.90
3940;DHT22;1984;48.312;9.244;2022-11-14T10:40:35;8.50;99.90
3940;DHT22;1984;48.312;9.244;2022-11-14T10:43:33;8.70;99.90
3940;DHT22;1984;48.312;9.244;2022-11-14T10:46:14;9.00;99.90
3940;DHT22;1984;48.312;9.244;2022-11-14T10:48:43;8.90;99.90
3940;DHT22;1984;48.312;9.244;2022-11-14T10:51:27;8.90;99.90
3940;DHT22;1984;48.312;9.244;2022-11-14T10:53:57;8.80;99.90
3940;DHT22;1984;48.312;9.244;2022-11-14T10:56:24;8.70;99.90
3940;DHT22;1984;48.312;9.244;2022-11-14T10:58:50;8.70;99.90
3940;DHT22;1984;48.312;9.244;2022-11-14T11:04:26;8.70;99.90
3940;DHT22;1984;48.312;9.244;2022-11-14T11:06:56;8.70;99.90
3940;DHT22;1984;48.312;9.244;2022-11-14T11:09:24;8.70;99.90
3940;DHT22;1984;48.312;9.244;2022-11-14T11:12:14;8.60;99.90
3940;DHT22;1984;48.312;9.244;2022-11-14T11:14:41;8.50;99.90
3940;DHT22;1984;48.312;9.244;2022-11-14T11:17:18;8.40;99.90
3940;DHT22;1984;48.312;9.244;2022-11-14T11:19:45;8.40;99.90
3940;DHT22;1984;48.312;9.244;2022-11-14T11:24:48;8.30;99.90
3940;DHT22;1984;48.312;9.244;2022-11-14T11:27:25;8.40;99.90
3940;DHT22;1984;48.312;9.244;2022-11-14T11:32:32;8.40;99.90
3940;DHT22;1984;48.312;9.244;2022-11-14T11:35:00;8.40;99.90
3940;DHT22;1984;48.312;9.244;2022-11-14T11:37:30;8.50;99.90
3940;DHT22;1984;48.312;9.244;2022-11-14T11:40:01;8.40;99.90
3940;DHT22;1984;48.312;9.244;2022-11-14T11:42:42;8.40;99.90
3940;DHT22;1984;48.312;9.244;2022-11-14T11:45:15;8.30;99.90
3940;DHT22;1984;48.312;9.244;2022-11-14T11:47:45;8.30;99.90
3940;DHT22;1984;48.312;9.244;2022-11-14T11:50:18;8.30;99.90
3940;DHT22;1984;48.312;9.244;2022-11-14T11:57:47;8.30;99.90
3940;DHT22;1984;48.312;9.244;2022-11-14T12:02:50;8.50;99.90
3940;DHT22;1984;48.312;9.244;2022-11-14T12:05:32;8.70;99.90
3940;DHT22;1984;48.312;9.244;2022-11-14T12:08:08;8.90;99.90
3940;DHT22;1984;48.312;9.244;2022-11-14T12:10:39;9.00;99.90
3940;DHT22;1984;48.312;9.244;2022-11-14T12:16:19;9.10;99.90
3940;DHT22;1984;48.312;9.244;2022-11-14T12:27:13;9.40;99.90
3940;DHT22;1984;48.312;9.244;2022-11-14T12:30:13;9.50;99.90
3940;DHT22;1984;48.312;9.244;2022-11-14T12:32:48;9.50;99.90
3940;DHT22;1984;48.312;9.244;2022-11-14T12:35:28;9.50;99.90
3940;DHT22;1984;48.312;9.244;2022-11-14T12:37:55;9.50;99.90
3940;DHT22;1984;48.312;9.244;2022-11-14T12:40:39;9.40;99.90
3940;DHT22;1984;48.312;9.244;2022-11-14T12:43:35;9.50;99.90
3940;DHT22;1984;48.312;9.244;2022-11-14T12:46:12;9.50;99.90
3940;DHT22;1984;48.312;9.244;2022-11-14T12:48:38;9.40;99.90
3940;DHT22;1984;48.312;9.244;2022-11-14T12:51:50;9.40;99.90
3940;DHT22;1984;48.312;9.244;2022-11-14T12:53:55;9.50;99.90
3940;DHT22;1984;48.312;9.244;2022-11-14T13:04:41;9.80;99.90
3940;DHT22;1984;48.312;9.244;2022-11-14T13:07:23;9.90;99.90
3940;DHT22;1984;48.312;9.244;2022-11-14T13:12:34;9.90;99.90
3940;DHT22;1984;48.312;9.244;2022-11-14T13:18:25;9.90;99.90
3940;DHT22;1984;48.312;9.244;2022-11-14T13:21:23;9.80;99.90
3940;DHT22;1984;48.312;9.244;2022-11-14T13:24:09;9.70;99.90
3940;DHT22;1984;48.312;9.244;2022-11-14T13:26:36;9.70;99.90
3940;DHT22;1984;48.312;9.244;2022-11-14T13:29:02;9.80;99.90
3940;DHT22;1984;48.312;9.244;2022-11-14T13:31:44;9.90;99.90
3940;DHT22;1984;48.312;9.244;2022-11-14T13:34:40;10.00;99.90
3940;DHT22;1984;48.312;9.244;2022-11-14T13:37:33;10.00;99.90
3940;DHT22;1984;48.312;9.244;2022-11-14T13:45:47;10.00;99.90
3940;DHT22;1984;48.312;9.244;2022-11-14T13:48:26;9.90;99.90
3940;DHT22;1984;48.312;9.244;2022-11-14T13:51:02;9.90;99.90
3940;DHT22;1984;48.312;9.244;2022-11-14T13:53:30;9.90;99.90
3940;DHT22;1984;48.312;9.244;2022-11-14T14:06:56;9.50;99.90
3940;DHT22;1984;48.312;9.244;2022-11-14T14:15:33;9.40;99.90
3940;DHT22;1984;48.312;9.244;2022-11-14T14:19:03;9.30;99.90
3940;DHT22;1984;48.312;9.244;2022-11-14T14:21:15;9.30;99.90
3940;DHT22;1984;48.312;9.244;2022-11-14T14:27:28;9.20;99.90
3940;DHT22;1984;48.312;9.244;2022-11-14T14:30:11;9.10;99.90
3940;DHT22;1984;48.312;9.244;2022-11-14T14:32:37;9.00;99.90
3940;DHT22;1984;48.312;9.244;2022-11-14T14:37:51;9.00;99.90
3940;DHT22;1984;48.312;9.244;2022-11-14T14:40:35;9.00;99.90
3940;DHT22;1984;48.312;9.244;2022-11-14T14:43:04;9.10;99.90
3940;DHT22;1984;48.312;9.244;2022-11-14T14:45:33;9.10;99.90
3940;DHT22;1984;48.312;9.244;2022-11-14T14:48:11;9.10;99.90
3940;DHT22;1984;48.312;9.244;2022-11-14T14:50:40;9.10;99.90
3940;DHT22;1984;48.312;9.244;2022-11-14T14:53:20;9.10;99.90
3940;DHT22;1984;48.312;9.244;2022-11-14T14:55:55;9.10;99.90
3940;DHT22;1984;48.312;9.244;2022-11-14T15:00:58;9.10;99.90
3940;DHT22;1984;48.312;9.244;2022-11-14T15:03:31;9.00;99.90
3940;DHT22;1984;48.312;9.244;2022-11-14T15:05:59;9.00;99.90
3940;DHT22;1984;48.312;9.244;2022-11-14T15:08:25;9.00;99.90
3940;DHT22;1984;48.312;9.244;2022-11-14T15:10:55;8.90;99.90
3940;DHT22;1984;48.312;9.244;2022-11-14T15:13:22;9.00;99.90
3940;DHT22;1984;48.312;9.244;2022-11-14T15:15:50;8.90;99.90
3940;DHT22;1984;48.312;9.244;2022-11-14T15:18:35;8.90;99.90
3940;DHT22;1984;48.312;9.244;2022-11-14T15:24:19;8.90;99.90
3940;DHT22;1984;48.312;9.244;2022-11-14T15:26:45;8.80;99.90
3940;DHT22;1984;48.312;9.244;2022-11-14T15:29:22;8.80;99.90
3940;DHT22;1984;48.312;9.244;2022-11-14T15:31:55;8.80;99.90
3940;DHT22;1984;48.312;9.244;2022-11-14T15:34:27;8.80;99.90
3940;DHT22;1984;48.312;9.244;2022-11-14T15:39:39;8.70;99.90
3940;DHT22;1984;48.312;9.244;2022-11-14T15:44:49;8.60;99.90
3940;DHT22;1984;48.312;9.244;2022-11-14T15:47:29;8.60;99.90
3940;DHT22;1984;48.312;9.244;2022-11-14T15:50:04;8.50;99.90
3940;DHT22;1984;48.312;9.244;2022-11-14T15:53:01;8.50;99.90
3940;DHT22;1984;48.312;9.244;2022-11-14T15:55:28;8.50;99.90
3940;DHT22;1984;48.312;9.244;2022-11-14T15:57:54;8.50;99.90
3940;DHT22;1984;48.312;9.244;2022-11-14T16:00:20;8.40;99.90
3940;DHT22;1984;48.312;9.244;2022-11-14T16:02:52;8.40;99.90
3940;DHT22;1984;48.312;9.244;2022-11-14T16:05:25;8.30;99.90
3940;DHT22;1984;48.312;9.244;2022-11-14T16:07:52;8.30;99.90
3940;DHT22;1984;48.312;9.244;2022-11-14T16:10:22;8.30;99.90
3940;DHT22;1984;48.312;9.244;2022-11-14T16:12:48;8.30;99.90
3940;DHT22;1984;48.312;9.244;2022-11-14T16:15:15;8.30;99.90
3940;DHT22;1984;48.312;9.244;2022-11-14T16:17:43;8.20;99.90
3940;DHT22;1984;48.312;9.244;2022-11-14T16:20:14;8.20;99.90
3940;DHT22;1984;48.312;9.244;2022-11-14T16:22:45;8.10;99.90
3940;DHT22;1984;48.312;9.244;2022-11-14T16:25:23;8.10;99.90
3940;DHT22;1984;48.312;9.244;2022-11-14T16:27:49;8.00;99.90
3940;DHT22;1984;48.312;9.244;2022-11-14T16:30:16;7.90;99.90
3940;DHT22;1984;48.312;9.244;2022-11-14T16:32:43;8.00;99.90
3940;DHT22;1984;48.312;9.244;2022-11-14T16:35:14;7.90;99.90
3940;DHT22;1984;48.312;9.244;2022-11-14T16:37:40;7.90;99.90
3940;DHT22;1984;48.312;9.244;2022-11-14T16:40:13;7.90;99.90
3940;DHT22;1984;48.312;9.244;2022-11-14T16:42:39;7.90;99.90
3940;DHT22;1984;48.312;9.244;2022-11-14T16:45:05;7.90;99.90
3940;DHT22;1984;48.312;9.244;2022-11-14T16:47:31;7.80;99.90
3940;DHT22;1984;48.312;9.244;2022-11-14T16:49:57;7.80;99.90
3940;DHT22;1984;48.312;9.244;2022-11-14T16:52:23;7.80;99.90
3940;DHT22;1984;48.312;9.244;2022-11-14T16:54:48;7.80;99.90
3940;DHT22;1984;48.312;9.244;2022-11-14T16:57:14;7.80;99.90
3940;DHT22;1984;48.312;9.244;2022-11-14T16:59:39;7.80;99.90
3940;DHT22;1984;48.312;9.244;2022-11-14T17:02:05;7.70;99.90
3940;DHT22;1984;48.312;9.244;2022-11-14T17:04:31;7.70;99.90
3940;DHT22;1984;48.312;9.244;2022-11-14T17:06:56;7.60;99.90
3940;DHT22;1984;48.312;9.244;2022-11-14T17:09:22;7.60;99.90
3940;DHT22;1984;48.312;9.244;2022-11-14T17:11:47;7.60;99.90
3940;DHT22;1984;48.312;9.244;2022-11-14T17:14:13;7.60;99.90
3940;DHT22;1984;48.312;9.244;2022-11-14T17:16:39;7.60;99.90
3940;DHT22;1984;48.312;9.244;2022-11-14T17:19:05;7.60;99.90
3940;DHT22;1984;48.312;9.244;2022-11-14T17:21:32;7.60;99.90
3940;DHT22;1984;48.312;9.244;2022-11-14T17:23:59;7.60;99.90
3940;DHT22;1984;48.312;9.244;2022-11-14T17:26:28;7.60;99.90
3940;DHT22;1984;48.312;9.244;2022-11-14T17:28:54;7.60;99.90
3940;DHT22;1984;48.312;9.244;2022-11-14T17:31:20;7.60;99.90
3940;DHT22;1984;48.312;9.244;2022-11-14T17:33:56;7.60;99.90
3940;DHT22;1984;48.312;9.244;2022-11-14T17:36:24;7.60;99.90
3940;DHT22;1984;48.312;9.244;2022-11-14T17:38:50;7.60;99.90
3940;DHT22;1984;48.312;9.244;2022-11-14T17:41:15;7.60;99.90
3940;DHT22;1984;48.312;9.244;2022-11-14T17:43:41;7.60;99.90
3940;DHT22;1984;48.312;9.244;2022-11-14T17:46:08;7.60;99.90
3940;DHT22;1984;48.312;9.244;2022-11-14T17:48:34;7.60;99.90
3940;DHT22;1984;48.312;9.244;2022-11-14T17:51:07;7.60;99.90
3940;DHT22;1984;48.312;9.244;2022-11-14T17:53:35;7.50;99.90
3940;DHT22;1984;48.312;9.244;2022-11-14T17:56:00;7.50;99.90
3940;DHT22;1984;48.312;9.244;2022-11-14T17:58:28;7.50;99.90
3940;DHT22;1984;48.312;9.244;2022-11-14T18:00:53;7.50;99.90
3940;DHT22;1984;48.312;9.244;2022-11-14T18:03:19;7.50;99.90
3940;DHT22;1984;48.312;9.244;2022-11-14T18:05:46;7.60;99.90
3940;DHT22;1984;48.312;9.244;2022-11-14T18:08:12;7.50;99.90
3940;DHT22;1984;48.312;9.244;2022-11-14T18:10:37;7.50;99.90
3940;DHT22;1984;48.312;9.244;2022-11-14T18:13:03;7.40;99.90